createdAt,value
2022-12-22T00:00:25.573Z,32.69
2022-12-22T00:03:13.041Z,33.79
2022-12-22T00:06:00.207Z,32.12
2022-12-22T00:08:47.313Z,33.05
2022-12-22T00:11:34.448Z,33.10
2022-12-22T00:14:21.443Z,33.32
2022-12-22T00:17:08.432Z,32.86
2022-12-22T00:19:55.837Z,32.73
2022-12-22T00:22:44.636Z,32.76
2022-12-22T00:25:36.796Z,32.92
2022-12-22T00:28:33.048Z,31.80
2022-12-22T00:31:20.945Z,33.43
2022-12-22T00:34:08.388Z,33.87
2022-12-22T00:36:56.327Z,33.07
2022-12-22T00:39:44.523Z,31.63
2022-12-22T00:42:31.404Z,33.07
2022-12-22T00:45:18.383Z,33.07
2022-12-22T00:48:06.052Z,33.26
2022-12-22T00:50:55.887Z,31.65
2022-12-22T00:53:43.528Z,32.94
2022-12-22T00:56:30.800Z,33.40
2022-12-22T00:59:19.987Z,33.35
2022-12-22T01:02:07.869Z,33.23
2022-12-22T01:04:57.214Z,33.89
2022-12-22T01:07:46.672Z,33.63
2022-12-22T01:10:34.729Z,33.63
2022-12-22T01:13:29.706Z,33.53
2022-12-22T01:16:16.732Z,34.43
2022-12-22T01:19:04.136Z,34.68
2022-12-22T01:21:51.677Z,34.46
2022-12-22T01:24:38.667Z,33.94
2022-12-22T01:27:29.544Z,34.44
2022-12-22T01:30:16.979Z,34.49
2022-12-22T01:33:04.938Z,34.18
2022-12-22T01:35:53.959Z,33.19
2022-12-22T01:38:41.091Z,33.69
2022-12-22T01:41:34.061Z,34.12
2022-12-22T01:44:21.348Z,34.04
2022-12-22T01:47:08.727Z,33.92
2022-12-22T01:49:57.333Z,34.22
2022-12-22T01:52:51.989Z,34.37
2022-12-22T01:55:45.706Z,33.96
2022-12-22T01:59:00.622Z,34.11
2022-12-22T02:01:50.336Z,34.79
2022-12-22T02:04:40.991Z,34.73
2022-12-22T02:07:57.076Z,34.64
2022-12-22T02:10:44.559Z,35.44
2022-12-22T02:13:52.607Z,34.97
2022-12-22T02:17:11.873Z,33.27
2022-12-22T02:20:20.529Z,33.48
2022-12-22T02:23:23.598Z,32.78
2022-12-22T02:26:34.970Z,32.99
2022-12-22T02:29:24.301Z,32.96
2022-12-22T02:32:11.788Z,32.60
2022-12-22T02:34:59.753Z,32.20
2022-12-22T02:37:57.313Z,32.78
2022-12-22T02:41:04.506Z,32.35
2022-12-22T02:44:35.684Z,33.33
2022-12-22T02:47:46.764Z,29.88
2022-12-22T02:50:43.139Z,30.82
2022-12-22T02:53:33.078Z,32.03
2022-12-22T02:56:24.715Z,31.13
2022-12-22T02:59:13.407Z,31.37
2022-12-22T03:02:04.107Z,31.38
2022-12-22T03:04:51.425Z,33.46
2022-12-22T03:07:38.817Z,32.14
2022-12-22T03:10:26.933Z,31.82
2022-12-22T03:13:17.616Z,32.15
2022-12-22T03:16:04.954Z,32.79
2022-12-22T03:18:52.418Z,31.37
2022-12-22T03:21:39.487Z,32.39
2022-12-22T03:24:27.013Z,32.48
2022-12-22T03:26:56.439Z,32.91
2022-12-22T03:29:25.071Z,32.14
2022-12-22T03:31:53.943Z,32.04
2022-12-22T03:34:22.551Z,33.03
2022-12-22T03:36:51.532Z,34.72
2022-12-22T03:39:20.336Z,31.68
2022-12-22T03:42:07.539Z,33.50
2022-12-22T03:44:54.694Z,32.58
2022-12-22T03:47:24.082Z,33.76
2022-12-22T03:49:52.583Z,33.41
2022-12-22T03:52:21.619Z,31.43
2022-12-22T03:54:50.311Z,34.35
2022-12-22T03:57:19.129Z,32.67
2022-12-22T03:59:47.966Z,33.80
2022-12-22T04:02:16.986Z,31.99
2022-12-22T04:04:45.847Z,32.25
2022-12-22T04:07:14.744Z,31.88
2022-12-22T04:10:03.241Z,33.79
2022-12-22T04:12:50.493Z,34.53
2022-12-22T04:15:19.405Z,33.34
2022-12-22T04:17:48.106Z,34.88
2022-12-22T04:20:17.136Z,33.74
2022-12-22T04:22:46.245Z,32.66
2022-12-22T04:25:16.261Z,34.12
2022-12-22T04:27:45.058Z,34.46
2022-12-22T04:30:14.364Z,32.95
2022-12-22T04:32:43.697Z,33.86
2022-12-22T04:35:13.100Z,32.68
2022-12-22T04:37:41.739Z,33.13
2022-12-22T04:40:10.855Z,33.86
2022-12-22T04:42:39.850Z,33.87
2022-12-22T04:45:09.957Z,34.54
2022-12-22T04:47:38.867Z,33.29
2022-12-22T04:50:08.115Z,33.55
2022-12-22T04:52:37.116Z,34.68
2022-12-22T04:55:07.612Z,34.76
2022-12-22T04:57:40.854Z,33.59
2022-12-22T05:00:11.398Z,35.30
2022-12-22T05:02:40.725Z,31.34
2022-12-22T05:05:10.294Z,32.67
2022-12-22T05:07:39.132Z,31.08
2022-12-22T05:10:09.796Z,30.84
2022-12-22T05:12:59.108Z,31.64
2022-12-22T05:15:31.641Z,31.60
2022-12-22T05:18:02.271Z,29.16
2022-12-22T05:20:32.093Z,30.49
2022-12-22T05:23:01.093Z,29.90
2022-12-22T05:25:34.692Z,31.67
2022-12-22T05:28:04.625Z,30.59
2022-12-22T05:30:33.532Z,28.04
2022-12-22T05:33:05.431Z,29.09
2022-12-22T05:35:34.249Z,29.64
2022-12-22T05:38:02.961Z,26.99
2022-12-22T05:40:32.902Z,28.37
2022-12-22T05:43:01.702Z,29.54
2022-12-22T05:45:31.351Z,29.66
2022-12-22T05:48:00.047Z,28.75
2022-12-22T05:50:29.679Z,28.31
2022-12-22T05:53:07.256Z,28.14
2022-12-22T05:55:36.626Z,29.72
2022-12-22T05:58:05.192Z,31.39
2022-12-22T06:00:34.342Z,31.54
2022-12-22T06:03:03.201Z,29.22
2022-12-22T06:05:32.708Z,30.77
2022-12-22T06:08:01.693Z,30.25
2022-12-22T06:10:49.366Z,29.59
2022-12-22T06:13:36.661Z,28.68
2022-12-22T06:16:05.907Z,32.29
2022-12-22T06:18:34.908Z,29.88
2022-12-22T06:21:03.988Z,30.54
2022-12-22T06:23:32.617Z,30.42
2022-12-22T06:26:03.318Z,29.51
2022-12-22T06:28:32.763Z,30.18
2022-12-22T06:31:02.708Z,27.76
2022-12-22T06:33:32.059Z,26.86
2022-12-22T06:36:06.594Z,27.01
2022-12-22T06:38:36.336Z,26.82
2022-12-22T06:41:04.901Z,25.39
2022-12-22T06:43:33.906Z,26.50
2022-12-22T06:46:03.043Z,24.36
2022-12-22T06:48:31.876Z,25.01
2022-12-22T06:51:01.724Z,22.93
2022-12-22T06:53:30.605Z,23.69
2022-12-22T06:55:59.919Z,22.67
2022-12-22T06:58:29.011Z,22.86
2022-12-22T07:00:58.762Z,22.39
2022-12-22T07:03:27.809Z,21.57
2022-12-22T07:05:56.730Z,20.55
2022-12-22T07:11:11.530Z,20.96
2022-12-22T07:13:40.738Z,23.45
2022-12-22T07:16:11.630Z,17.86
2022-12-22T07:18:43.763Z,20.93
2022-12-22T07:21:14.942Z,20.39
2022-12-22T07:23:44.030Z,21.54
2022-12-22T07:26:13.766Z,20.57
2022-12-22T07:28:44.239Z,22.18
2022-12-22T07:31:13.562Z,21.45
2022-12-22T07:33:42.747Z,20.27
2022-12-22T07:36:20.032Z,19.58
2022-12-22T07:38:51.550Z,19.29
2022-12-22T07:41:39.661Z,22.48
2022-12-22T07:44:09.445Z,19.88
2022-12-22T07:46:39.787Z,20.47
2022-12-22T07:49:28.218Z,19.58
2022-12-22T07:51:59.028Z,20.03
2022-12-22T07:54:28.748Z,19.18
2022-12-22T07:56:57.860Z,18.67
2022-12-22T07:59:26.553Z,22.07
2022-12-22T08:01:55.698Z,19.67
2022-12-22T08:04:24.804Z,20.13
2022-12-22T08:06:53.380Z,19.57
2022-12-22T08:09:24.094Z,19.85
2022-12-22T08:11:53.169Z,19.54
2022-12-22T08:14:22.028Z,17.91
2022-12-22T08:16:51.349Z,19.83
2022-12-22T08:19:20.586Z,19.81
2022-12-22T08:21:52.876Z,20.20
2022-12-22T08:24:22.933Z,20.83
2022-12-22T08:26:56.975Z,20.55
2022-12-22T08:29:34.413Z,20.10
2022-12-22T08:32:03.506Z,18.78
2022-12-22T08:34:32.647Z,17.83
2022-12-22T08:37:07.022Z,19.25
2022-12-22T08:39:39.640Z,20.07
2022-12-22T08:42:12.630Z,18.82
2022-12-22T08:44:42.783Z,20.43
2022-12-22T08:47:16.617Z,20.86
2022-12-22T08:49:47.451Z,21.31
2022-12-22T08:52:18.728Z,23.18
2022-12-22T08:54:48.451Z,23.02
2022-12-22T08:57:17.336Z,21.64
2022-12-22T08:59:49.198Z,19.15
2022-12-22T09:02:18.214Z,20.58
2022-12-22T09:04:48.443Z,22.21
2022-12-22T09:07:19.355Z,20.49
2022-12-22T09:09:48.670Z,20.17
2022-12-22T09:12:18.926Z,20.29
2022-12-22T09:14:48.340Z,20.53
2022-12-22T09:17:16.912Z,19.76
2022-12-22T09:19:46.477Z,22.18
2022-12-22T09:22:15.324Z,19.62
2022-12-22T09:24:44.642Z,18.14
2022-12-22T09:27:13.843Z,18.26
2022-12-22T09:29:44.237Z,18.36
2022-12-22T09:32:13.593Z,21.59
2022-12-22T09:34:42.241Z,21.25
2022-12-22T09:37:12.225Z,24.39
2022-12-22T09:39:43.693Z,25.44
2022-12-22T09:42:21.261Z,26.57
2022-12-22T09:44:52.623Z,26.41
2022-12-22T09:47:41.094Z,26.07
2022-12-22T09:50:17.996Z,26.04
2022-12-22T09:53:07.669Z,26.99
2022-12-22T09:55:46.226Z,28.32
2022-12-22T09:58:26.500Z,28.30
2022-12-22T10:01:38.799Z,28.33
2022-12-22T10:04:31.831Z,28.20
2022-12-22T10:07:10.405Z,27.98
2022-12-22T10:09:50.051Z,27.96
2022-12-22T10:12:24.721Z,28.38
2022-12-22T10:14:56.495Z,29.20
2022-12-22T10:17:36.151Z,29.45
2022-12-22T10:20:28.779Z,30.64
2022-12-22T10:23:14.088Z,30.78
2022-12-22T10:28:52.043Z,30.89
2022-12-22T10:31:25.459Z,30.01
2022-12-22T10:33:58.172Z,30.85
2022-12-22T10:36:33.615Z,31.68
2022-12-22T10:39:04.334Z,32.10
2022-12-22T10:41:39.831Z,31.33
2022-12-22T10:44:18.299Z,32.37
2022-12-22T10:46:53.191Z,32.25
2022-12-22T10:52:33.827Z,32.06
2022-12-22T10:55:19.200Z,30.94
2022-12-22T10:57:50.605Z,32.62
2022-12-22T11:00:31.299Z,31.86
2022-12-22T11:03:02.883Z,33.58
2022-12-22T11:05:33.632Z,34.45
2022-12-22T11:08:18.236Z,36.24
2022-12-22T11:11:17.098Z,35.87
2022-12-22T11:13:58.933Z,37.56
2022-12-22T11:16:42.818Z,38.19
2022-12-22T11:19:48.903Z,39.00
2022-12-22T11:22:40.316Z,38.46
2022-12-22T11:26:05.470Z,40.02
2022-12-22T11:29:10.813Z,40.76
2022-12-22T11:31:55.546Z,41.64
2022-12-22T11:34:47.718Z,42.15
2022-12-22T11:37:41.273Z,43.43
2022-12-22T11:40:50.128Z,44.20
2022-12-22T11:43:46.598Z,44.77
2022-12-22T11:46:37.004Z,45.80
2022-12-22T11:49:20.377Z,46.42
2022-12-22T11:52:23.370Z,47.16
2022-12-22T11:54:59.142Z,47.93
2022-12-22T11:57:38.444Z,48.26
2022-12-22T12:00:19.689Z,48.63
2022-12-22T12:03:24.711Z,49.22
2022-12-22T12:06:06.797Z,49.39
2022-12-22T12:08:53.262Z,49.01
2022-12-22T12:11:29.735Z,48.47
2022-12-22T12:14:01.894Z,48.43
2022-12-22T12:17:01.117Z,48.63
2022-12-22T12:19:37.098Z,49.35
2022-12-22T12:22:12.131Z,49.09
2022-12-22T12:25:03.641Z,49.04
2022-12-22T12:27:42.367Z,49.04
2022-12-22T12:33:22.760Z,49.38
2022-12-22T12:36:07.382Z,50.16
2022-12-22T12:39:08.043Z,49.42
2022-12-22T12:42:08.678Z,49.32
2022-12-22T12:44:42.917Z,48.59
2022-12-22T12:47:31.132Z,48.19
2022-12-22T12:50:34.762Z,47.24
2022-12-22T12:53:10.322Z,46.05
2022-12-22T12:55:44.067Z,45.66
2022-12-22T12:58:34.180Z,45.51
2022-12-22T13:01:07.571Z,45.87
2022-12-22T13:06:54.594Z,46.37
2022-12-22T13:09:50.390Z,45.71
2022-12-22T13:12:36.122Z,45.31
2022-12-22T13:15:06.539Z,44.56
2022-12-22T13:17:49.485Z,43.98
2022-12-22T13:20:29.209Z,43.46
2022-12-22T13:23:02.847Z,43.85
2022-12-22T13:25:57.261Z,45.05
2022-12-22T13:28:29.624Z,44.60
2022-12-22T13:31:22.901Z,44.03
2022-12-22T13:34:46.284Z,44.44
2022-12-22T13:37:28.954Z,44.08
2022-12-22T13:40:33.132Z,45.11
2022-12-22T13:43:14.575Z,46.89
2022-12-22T13:46:07.166Z,46.22
2022-12-22T13:48:48.285Z,47.59
2022-12-22T13:51:36.760Z,45.70
2022-12-22T13:54:16.592Z,46.55
2022-12-22T13:56:48.198Z,47.15
2022-12-22T13:59:29.996Z,48.37
2022-12-22T14:02:05.657Z,48.18
2022-12-22T14:04:35.754Z,49.11
2022-12-22T14:07:23.055Z,48.94
2022-12-22T14:09:57.415Z,44.66
2022-12-22T14:12:41.289Z,43.79
2022-12-22T14:15:19.126Z,44.65
2022-12-22T14:17:53.162Z,45.17
2022-12-22T14:20:30.085Z,46.26
2022-12-22T14:23:22.649Z,46.57
2022-12-22T14:25:55.405Z,46.42
2022-12-22T14:28:31.547Z,46.95
2022-12-22T14:31:02.672Z,47.59
2022-12-22T14:33:36.158Z,46.14
2022-12-22T14:36:07.868Z,42.50
2022-12-22T14:38:51.086Z,40.44
2022-12-22T14:41:59.082Z,42.92
2022-12-22T14:44:46.353Z,40.32
2022-12-22T14:47:24.243Z,40.36
2022-12-22T14:50:15.656Z,39.05
2022-12-22T14:52:52.617Z,37.67
2022-12-22T14:55:36.843Z,37.64
2022-12-22T14:58:13.751Z,35.04
2022-12-22T15:00:49.744Z,34.61
2022-12-22T15:03:40.240Z,35.10
2022-12-22T15:06:29.264Z,35.03
2022-12-22T15:09:13.171Z,35.39
2022-12-22T15:11:48.132Z,36.22
2022-12-22T15:14:23.614Z,36.61
2022-12-22T15:17:03.898Z,37.05
2022-12-22T15:19:36.844Z,37.90
2022-12-22T15:22:09.772Z,38.25
2022-12-22T15:24:39.875Z,39.07
2022-12-22T15:27:09.575Z,40.13
2022-12-22T15:29:39.618Z,41.95
2022-12-22T15:32:16.638Z,41.48
2022-12-22T15:34:47.132Z,41.98
2022-12-22T15:37:17.385Z,42.70
2022-12-22T15:39:48.584Z,44.09
2022-12-22T15:42:19.268Z,44.97
2022-12-22T15:44:49.518Z,44.13
2022-12-22T15:47:24.607Z,44.50
2022-12-22T15:49:55.013Z,44.29
2022-12-22T15:52:28.227Z,45.18
2022-12-22T15:55:00.448Z,45.51
2022-12-22T15:57:31.383Z,45.06
2022-12-22T16:00:01.895Z,44.85
2022-12-22T16:02:33.570Z,45.61
2022-12-22T16:05:04.024Z,45.24
2022-12-22T16:07:34.631Z,45.07
2022-12-22T16:10:07.142Z,43.85
2022-12-22T16:12:38.487Z,42.93
2022-12-22T16:15:16.107Z,43.30
2022-12-22T16:17:47.522Z,42.29
2022-12-22T16:20:17.784Z,39.52
2022-12-22T16:22:47.771Z,41.21
2022-12-22T16:25:22.604Z,39.70
2022-12-22T16:27:53.444Z,39.86
2022-12-22T16:30:26.181Z,40.99
2022-12-22T16:32:57.885Z,40.73
2022-12-22T16:35:30.778Z,40.54
2022-12-22T16:38:02.319Z,41.78
2022-12-22T16:40:35.098Z,42.95
2022-12-22T16:46:02.268Z,40.77
2022-12-22T16:48:44.909Z,40.87
2022-12-22T16:51:40.491Z,42.21
2022-12-22T16:54:16.037Z,42.19
2022-12-22T16:56:53.606Z,41.66
2022-12-22T16:59:43.667Z,41.33
2022-12-22T17:02:36.940Z,39.74
2022-12-22T17:05:14.768Z,40.12
2022-12-22T17:07:46.745Z,39.76
2022-12-22T17:10:19.079Z,39.30
2022-12-22T17:12:55.218Z,39.02
2022-12-22T17:15:26.073Z,39.20
2022-12-22T17:17:57.655Z,38.97
2022-12-22T17:20:30.573Z,38.51
2022-12-22T17:23:05.375Z,38.04
2022-12-22T17:25:35.744Z,38.00
2022-12-22T17:28:06.227Z,37.43
2022-12-22T17:30:37.070Z,35.73
2022-12-22T17:33:07.209Z,35.28
2022-12-22T17:35:38.588Z,35.56
2022-12-22T17:38:23.871Z,35.65
2022-12-22T17:40:54.914Z,36.25
2022-12-22T17:43:28.046Z,36.32
2022-12-22T17:45:58.038Z,36.59
2022-12-22T17:48:27.690Z,37.26
2022-12-22T17:50:58.203Z,37.88
2022-12-22T17:53:29.160Z,38.23
2022-12-22T17:56:09.551Z,38.81
2022-12-22T17:58:39.963Z,39.22
2022-12-22T18:01:20.837Z,38.46
2022-12-22T18:03:51.199Z,38.01
2022-12-22T18:06:23.434Z,36.99
2022-12-22T18:08:55.178Z,36.04
2022-12-22T18:11:25.436Z,35.93
2022-12-22T18:13:58.262Z,36.67
2022-12-22T18:16:28.462Z,37.00
2022-12-22T18:18:57.701Z,37.47
2022-12-22T18:21:30.271Z,37.35
2022-12-22T18:24:02.067Z,36.81
2022-12-22T18:26:33.373Z,36.72
2022-12-22T18:29:05.111Z,36.67
2022-12-22T18:31:35.387Z,37.35
2022-12-22T18:34:06.637Z,36.78
2022-12-22T18:36:37.370Z,36.12
2022-12-22T18:39:11.817Z,35.55
2022-12-22T18:41:44.922Z,35.29
2022-12-22T18:44:18.876Z,34.64
2022-12-22T18:46:49.805Z,33.34
2022-12-22T18:49:19.388Z,32.40
2022-12-22T18:51:48.825Z,32.11
2022-12-22T18:54:39.229Z,32.31
2022-12-22T18:57:16.012Z,32.08
2022-12-22T18:59:46.472Z,32.20
2022-12-22T19:02:29.704Z,32.38
2022-12-22T19:04:59.555Z,32.87
2022-12-22T19:07:28.969Z,32.38
2022-12-22T19:09:58.837Z,32.90
2022-12-22T19:12:29.865Z,33.85
2022-12-22T19:15:04.902Z,34.80
2022-12-22T19:17:34.628Z,35.84
2022-12-22T19:20:03.841Z,36.17
2022-12-22T19:22:33.208Z,36.04
2022-12-22T19:25:03.148Z,35.88
2022-12-22T19:27:37.125Z,35.73
2022-12-22T19:30:07.446Z,35.84
2022-12-22T19:32:49.293Z,34.92
2022-12-22T19:35:22.140Z,34.73
2022-12-22T19:37:53.265Z,35.01
2022-12-22T19:40:29.194Z,35.89
2022-12-22T19:42:59.891Z,34.16
2022-12-22T19:45:37.251Z,33.69
2022-12-22T19:48:18.899Z,35.84
2022-12-22T19:50:49.729Z,33.79
2022-12-22T19:53:20.288Z,34.50
2022-12-22T19:55:56.673Z,34.33
2022-12-22T19:58:32.503Z,34.56
2022-12-22T20:01:02.034Z,35.49
2022-12-22T20:03:31.621Z,35.91
2022-12-22T20:06:01.066Z,35.25
2022-12-22T20:08:30.652Z,35.23
2022-12-22T20:11:01.820Z,36.71
2022-12-22T20:13:35.188Z,36.71
2022-12-22T20:16:06.236Z,36.32
2022-12-22T20:18:36.137Z,36.35
2022-12-22T20:21:09.393Z,36.35
2022-12-22T20:23:40.332Z,37.32
2022-12-22T20:26:16.682Z,36.99
2022-12-22T20:28:46.011Z,36.49
2022-12-22T20:31:17.348Z,36.34
2022-12-22T20:33:48.098Z,36.06
2022-12-22T20:36:25.727Z,36.26
2022-12-22T20:38:56.912Z,35.96
2022-12-22T20:41:26.992Z,36.51
2022-12-22T20:43:56.287Z,36.14
2022-12-22T20:46:28.742Z,36.44
2022-12-22T20:49:01.375Z,36.89
2022-12-22T20:51:33.702Z,36.56
2022-12-22T20:54:03.664Z,36.97
2022-12-22T20:56:39.180Z,36.23
2022-12-22T20:59:21.973Z,37.03
2022-12-22T21:01:53.585Z,37.62
2022-12-22T21:04:29.307Z,38.83
2022-12-22T21:06:59.148Z,37.79
2022-12-22T21:09:28.503Z,37.67
2022-12-22T21:11:57.832Z,38.16
2022-12-22T21:14:27.135Z,38.14
2022-12-22T21:16:59.512Z,38.31
2022-12-22T21:19:29.318Z,39.50
2022-12-22T21:21:58.417Z,39.31
2022-12-22T21:24:27.666Z,40.38
2022-12-22T21:26:57.581Z,41.49
2022-12-22T21:29:28.413Z,41.88
2022-12-22T21:31:57.764Z,41.96
2022-12-22T21:34:26.986Z,41.83
2022-12-22T21:37:04.881Z,42.54
2022-12-22T21:39:45.872Z,41.95
2022-12-22T21:42:24.349Z,41.04
2022-12-22T21:44:54.377Z,40.95
2022-12-22T21:47:23.604Z,42.01
2022-12-22T21:49:53.192Z,41.93
2022-12-22T21:52:22.481Z,43.69
2022-12-22T21:54:52.433Z,40.66
2022-12-22T21:57:21.789Z,39.35
2022-12-22T21:59:51.307Z,40.68
2022-12-22T22:02:20.689Z,39.65
2022-12-22T22:04:54.529Z,38.43
2022-12-22T22:07:25.229Z,37.50
2022-12-22T22:09:55.405Z,37.03
2022-12-22T22:12:33.696Z,37.16
2022-12-22T22:15:03.305Z,37.20
2022-12-22T22:17:32.388Z,35.79
2022-12-22T22:20:02.536Z,34.71
2022-12-22T22:22:32.130Z,32.98
2022-12-22T22:25:01.532Z,31.20
2022-12-22T22:27:30.777Z,29.67
2022-12-22T22:29:59.953Z,29.03
2022-12-22T22:32:29.112Z,28.53
2022-12-22T22:34:59.203Z,28.25
2022-12-22T22:37:28.495Z,28.17
2022-12-22T22:39:58.601Z,27.72
2022-12-22T22:42:28.016Z,27.03
2022-12-22T22:44:58.285Z,26.71
2022-12-22T22:47:27.546Z,26.68
2022-12-22T22:49:56.894Z,27.91
2022-12-22T22:52:26.144Z,27.82
2022-12-22T22:54:55.509Z,28.20
2022-12-22T22:57:24.887Z,28.78
2022-12-22T22:59:54.146Z,27.77
2022-12-22T23:02:23.622Z,28.93
2022-12-22T23:04:53.395Z,28.95
2022-12-22T23:07:22.557Z,29.68
2022-12-22T23:09:52.424Z,32.25
2022-12-22T23:12:21.778Z,32.69
2022-12-22T23:14:51.136Z,32.64
2022-12-22T23:17:20.393Z,33.37
2022-12-22T23:19:50.267Z,32.17
2022-12-22T23:22:19.520Z,32.69
2022-12-22T23:24:48.888Z,33.30
2022-12-22T23:27:18.641Z,33.67
2022-12-22T23:29:47.952Z,33.05
2022-12-22T23:32:17.432Z,32.54
2022-12-22T23:34:46.886Z,32.65
2022-12-22T23:37:19.742Z,32.44
2022-12-22T23:39:49.170Z,32.15
2022-12-22T23:42:18.734Z,31.78
2022-12-22T23:44:49.282Z,31.96
2022-12-22T23:47:18.494Z,32.32
2022-12-22T23:49:47.720Z,32.72
2022-12-22T23:52:17.069Z,33.99
2022-12-22T23:54:46.068Z,32.80
2022-12-22T23:57:15.419Z,32.91
2022-12-22T23:59:44.654Z,33.42
